createdAt,value
2019-05-17T00:00:42.242Z,64.90
2019-05-17T00:01:47.082Z,65.00
2019-05-17T00:02:52.294Z,65.00
2019-05-17T00:03:57.234Z,65.10
2019-05-17T00:05:02.067Z,65.10
2019-05-17T00:06:07.034Z,65.20
2019-05-17T00:07:12.275Z,65.20
2019-05-17T00:08:30.831Z,65.30
2019-05-17T00:09:23.742Z,65.30
2019-05-17T00:10:28.937Z,65.20
2019-05-17T00:11:33.886Z,65.30
2019-05-17T00:12:38.629Z,65.30
2019-05-17T00:13:43.689Z,65.30
2019-05-17T00:14:48.338Z,65.40
2019-05-17T00:15:53.381Z,65.40
2019-05-17T00:16:58.148Z,65.40
2019-05-17T00:18:03.118Z,65.40
2019-05-17T00:19:07.791Z,65.40
2019-05-17T00:20:13.268Z,65.40
2019-05-17T00:21:18.013Z,66.20
2019-05-17T00:22:22.869Z,65.60
2019-05-17T00:23:27.521Z,65.60
2019-05-17T00:24:32.464Z,65.60
2019-05-17T00:25:37.290Z,65.70
2019-05-17T00:26:42.196Z,65.60
2019-05-17T00:27:47.494Z,65.80
2019-05-17T00:28:52.697Z,65.80
2019-05-17T00:29:57.518Z,65.80
2019-05-17T00:31:02.360Z,65.90
2019-05-17T00:32:07.015Z,65.90
2019-05-17T00:33:11.888Z,65.90
2019-05-17T00:34:16.910Z,66.80
2019-05-17T00:35:21.875Z,66.00
2019-05-17T00:36:27.522Z,66.10
2019-05-17T00:37:32.636Z,66.20
2019-05-17T00:38:47.613Z,66.20
2019-05-17T00:39:43.873Z,66.20
2019-05-17T00:40:48.524Z,66.30
2019-05-17T00:41:53.393Z,66.40
2019-05-17T00:42:58.293Z,66.50
2019-05-17T00:44:03.658Z,66.60
2019-05-17T00:45:09.885Z,66.60
2019-05-17T00:46:17.086Z,66.70
2019-05-17T00:47:21.394Z,66.80
2019-05-17T00:48:26.542Z,66.90
2019-05-17T00:49:31.351Z,66.90
2019-05-17T00:50:37.945Z,66.90
2019-05-17T00:51:42.599Z,67.00
2019-05-17T00:52:47.696Z,67.10
2019-05-17T00:53:52.512Z,67.00
2019-05-17T00:54:57.570Z,67.20
2019-05-17T00:56:02.387Z,67.20
2019-05-17T00:57:07.641Z,67.20
2019-05-17T00:58:12.466Z,67.30
2019-05-17T00:59:17.354Z,67.30
2019-05-17T01:00:22.200Z,67.50
2019-05-17T01:01:27.306Z,67.30
2019-05-17T01:02:33.420Z,67.40
2019-05-17T01:03:38.539Z,67.50
2019-05-17T01:04:43.432Z,67.60
2019-05-17T01:05:48.293Z,67.60
2019-05-17T01:06:52.934Z,67.60
2019-05-17T01:07:57.792Z,67.60
2019-05-17T01:09:04.206Z,67.60
2019-05-17T01:10:09.708Z,67.70
2019-05-17T01:11:16.455Z,67.80
2019-05-17T01:12:21.046Z,67.80
2019-05-17T01:13:26.708Z,67.80
2019-05-17T01:14:31.752Z,67.80
2019-05-17T01:15:37.107Z,67.80
2019-05-17T01:16:42.177Z,67.80
2019-05-17T01:17:47.436Z,67.90
2019-05-17T01:18:52.458Z,67.90
2019-05-17T01:19:57.505Z,68.70
2019-05-17T01:21:03.128Z,68.00
2019-05-17T01:22:07.906Z,67.90
2019-05-17T01:23:12.765Z,67.90
2019-05-17T01:24:17.595Z,67.90
2019-05-17T01:25:22.674Z,67.90
2019-05-17T01:26:27.504Z,67.90
2019-05-17T01:27:32.382Z,67.90
2019-05-17T01:28:37.136Z,68.00
2019-05-17T01:29:42.318Z,68.00
2019-05-17T01:30:46.981Z,67.90
2019-05-17T01:31:51.873Z,67.90
2019-05-17T01:32:57.133Z,67.90
2019-05-17T01:34:02.041Z,67.90
2019-05-17T01:35:07.676Z,68.10
2019-05-17T01:36:12.644Z,68.00
2019-05-17T01:37:17.378Z,67.90
2019-05-17T01:38:22.264Z,67.90
2019-05-17T01:39:27.146Z,68.00
2019-05-17T01:40:32.052Z,68.00
2019-05-17T01:41:37.250Z,68.00
2019-05-17T01:42:42.226Z,68.00
2019-05-17T01:43:47.475Z,68.10
2019-05-17T01:44:52.570Z,68.10
2019-05-17T01:45:57.562Z,68.10
2019-05-17T01:47:02.719Z,68.10
2019-05-17T01:48:07.636Z,68.10
2019-05-17T01:49:12.572Z,68.10
2019-05-17T01:50:17.726Z,68.00
2019-05-17T01:51:22.579Z,68.00
2019-05-17T01:52:27.433Z,68.00
2019-05-17T01:53:32.372Z,68.10
2019-05-17T01:54:37.015Z,68.10
2019-05-17T01:55:41.855Z,68.10
2019-05-17T01:56:46.675Z,68.10
2019-05-17T01:57:51.501Z,68.10
2019-05-17T01:58:57.545Z,68.20
2019-05-17T02:00:18.102Z,68.20
2019-05-17T02:01:22.821Z,68.20
2019-05-17T02:02:28.961Z,68.10
2019-05-17T02:03:33.758Z,68.20
2019-05-17T02:04:38.699Z,68.20
2019-05-17T02:05:43.597Z,68.20
2019-05-17T02:06:48.448Z,68.20
2019-05-17T02:07:53.354Z,69.00
2019-05-17T02:08:58.264Z,68.20
2019-05-17T02:10:04.357Z,68.20
2019-05-17T02:11:09.198Z,68.20
2019-05-17T02:12:13.906Z,68.10
2019-05-17T02:13:18.751Z,68.20
2019-05-17T02:14:23.492Z,68.20
2019-05-17T02:15:28.372Z,68.20
2019-05-17T02:16:33.100Z,68.20
2019-05-17T02:17:38.294Z,68.20
2019-05-17T02:18:43.098Z,68.30
2019-05-17T02:19:47.954Z,68.20
2019-05-17T02:20:52.731Z,68.20
2019-05-17T02:21:57.644Z,68.20
2019-05-17T02:23:02.355Z,68.30
2019-05-17T02:24:08.061Z,68.40
2019-05-17T02:25:16.561Z,68.40
2019-05-17T02:26:20.700Z,68.40
2019-05-17T02:27:31.561Z,68.40
2019-05-17T02:28:33.131Z,68.40
2019-05-17T02:29:37.766Z,68.50
2019-05-17T02:30:44.073Z,68.50
2019-05-17T02:31:52.461Z,68.60
2019-05-17T02:32:56.922Z,68.50
2019-05-17T02:34:03.029Z,68.60
2019-05-17T02:35:08.977Z,68.60
2019-05-17T02:36:14.441Z,68.70
2019-05-17T02:37:22.936Z,68.70
2019-05-17T02:38:25.919Z,68.70
2019-05-17T02:39:32.718Z,68.80
2019-05-17T02:40:37.316Z,68.70
2019-05-17T02:41:43.061Z,68.70
2019-05-17T02:42:48.200Z,68.80
2019-05-17T02:43:53.481Z,68.80
2019-05-17T02:44:58.424Z,68.80
2019-05-17T02:46:04.206Z,68.80
2019-05-17T02:47:09.272Z,68.80
2019-05-17T02:48:14.123Z,69.00
2019-05-17T02:49:18.931Z,69.10
2019-05-17T02:50:23.834Z,69.10
2019-05-17T02:51:28.622Z,69.10
2019-05-17T02:52:33.668Z,69.20
2019-05-17T02:53:38.511Z,69.10
2019-05-17T02:54:43.842Z,69.20
2019-05-17T02:55:48.672Z,69.30
2019-05-17T02:56:54.001Z,69.30
2019-05-17T02:58:02.508Z,69.40
2019-05-17T02:59:05.660Z,69.40
2019-05-17T03:00:13.517Z,69.40
2019-05-17T03:01:17.462Z,69.40
2019-05-17T03:02:27.048Z,69.40
2019-05-17T03:03:28.940Z,69.40
2019-05-17T03:04:33.615Z,69.40
2019-05-17T03:05:38.452Z,69.40
2019-05-17T03:06:44.114Z,69.50
2019-05-17T03:07:52.605Z,69.50
2019-05-17T03:08:55.556Z,69.50
2019-05-17T03:10:13.566Z,69.50
2019-05-17T03:11:06.852Z,69.50
2019-05-17T03:12:12.972Z,69.50
2019-05-17T03:13:18.210Z,69.40
2019-05-17T03:14:23.192Z,69.50
2019-05-17T03:15:27.843Z,69.50
2019-05-17T03:16:33.873Z,70.50
2019-05-17T03:17:38.999Z,70.50
2019-05-17T03:18:44.081Z,70.80
2019-05-17T03:19:49.012Z,69.50
2019-05-17T03:20:54.079Z,69.50
2019-05-17T03:21:58.729Z,69.50
2019-05-17T03:23:04.273Z,69.50
2019-05-17T03:24:09.069Z,69.70
2019-05-17T03:25:14.656Z,69.60
2019-05-17T03:26:19.549Z,69.60
2019-05-17T03:27:24.398Z,69.60
2019-05-17T03:28:29.175Z,69.60
2019-05-17T03:29:34.430Z,69.60
2019-05-17T03:30:46.711Z,69.60
2019-05-17T03:31:59.744Z,69.70
2019-05-17T03:32:58.610Z,69.70
2019-05-17T03:34:06.778Z,69.70
2019-05-17T03:35:17.032Z,69.70
2019-05-17T03:36:18.053Z,69.70
2019-05-17T03:37:30.114Z,69.70
2019-05-17T03:38:32.354Z,70.50
2019-05-17T03:39:36.117Z,69.80
2019-05-17T03:41:07.458Z,69.80
2019-05-17T03:41:47.463Z,70.00
2019-05-17T03:42:53.812Z,69.90
2019-05-17T03:43:58.937Z,69.80
2019-05-17T03:45:05.031Z,69.80
2019-05-17T03:46:13.626Z,70.00
2019-05-17T03:47:16.813Z,70.00
2019-05-17T03:48:22.188Z,70.00
2019-05-17T03:49:27.369Z,70.00
2019-05-17T03:50:33.505Z,70.10
2019-05-17T03:51:38.840Z,70.10
2019-05-17T03:52:44.801Z,70.10
2019-05-17T03:53:53.124Z,70.10
2019-05-17T03:54:56.727Z,70.10
2019-05-17T03:56:03.029Z,70.20
2019-05-17T03:57:08.142Z,70.10
2019-05-17T03:58:13.141Z,70.20
2019-05-17T03:59:18.169Z,70.30
2019-05-17T04:00:23.546Z,70.30
2019-05-17T04:01:28.257Z,70.30
2019-05-17T04:02:33.110Z,70.30
2019-05-17T04:03:37.975Z,70.30
2019-05-17T04:04:43.203Z,70.40
2019-05-17T04:05:48.100Z,70.40
2019-05-17T04:06:52.966Z,70.40
2019-05-17T04:07:57.888Z,70.50
2019-05-17T04:09:03.958Z,70.60
2019-05-17T04:10:09.353Z,70.70
2019-05-17T04:11:26.705Z,70.70
2019-05-17T04:12:23.153Z,70.70
2019-05-17T04:13:27.092Z,70.80
2019-05-17T04:14:33.600Z,70.70
2019-05-17T04:15:38.309Z,70.70
2019-05-17T04:16:44.640Z,70.80
2019-05-17T04:17:52.703Z,70.90
2019-05-17T04:18:55.921Z,71.30
2019-05-17T04:20:03.375Z,71.00
2019-05-17T04:21:07.140Z,71.00
2019-05-17T04:22:13.914Z,71.20
2019-05-17T04:23:18.552Z,71.20
2019-05-17T04:24:24.487Z,71.20
2019-05-17T04:25:29.684Z,71.30
2019-05-17T04:26:34.560Z,71.30
2019-05-17T04:27:43.155Z,71.40
2019-05-17T04:28:45.929Z,71.40
2019-05-17T04:29:53.238Z,71.50
2019-05-17T04:30:57.217Z,71.50
2019-05-17T04:32:03.984Z,71.60
2019-05-17T04:33:08.627Z,71.60
2019-05-17T04:34:13.737Z,71.70
2019-05-17T04:35:18.726Z,71.70
2019-05-17T04:36:23.526Z,71.80
2019-05-17T04:37:28.481Z,71.80
2019-05-17T04:38:33.497Z,71.90
2019-05-17T04:39:38.554Z,72.00
2019-05-17T04:40:43.494Z,72.00
2019-05-17T04:41:51.067Z,72.00
2019-05-17T04:42:54.923Z,72.10
2019-05-17T04:44:02.432Z,72.10
2019-05-17T04:45:06.562Z,72.20
2019-05-17T04:46:13.020Z,72.30
2019-05-17T04:47:18.098Z,72.40
2019-05-17T04:48:23.390Z,72.40
2019-05-17T04:49:28.779Z,72.40
2019-05-17T04:50:34.738Z,72.40
2019-05-17T04:51:39.436Z,72.40
2019-05-17T04:52:44.349Z,72.40
2019-05-17T04:53:52.713Z,72.60
2019-05-17T04:54:55.848Z,72.50
2019-05-17T04:56:03.042Z,72.60
2019-05-17T04:57:07.260Z,72.80
2019-05-17T04:58:13.718Z,72.70
2019-05-17T04:59:18.812Z,72.80
2019-05-17T05:00:24.674Z,72.70
2019-05-17T05:01:32.748Z,72.80
2019-05-17T05:02:35.896Z,72.80
2019-05-17T05:03:43.004Z,72.80
2019-05-17T05:04:47.272Z,72.90
2019-05-17T05:05:53.579Z,72.90
2019-05-17T05:06:58.502Z,72.90
2019-05-17T05:08:03.597Z,73.00
2019-05-17T05:09:08.506Z,73.00
2019-05-17T05:10:14.573Z,73.00
2019-05-17T05:11:19.472Z,73.10
2019-05-17T05:12:24.319Z,73.10
2019-05-17T05:13:29.006Z,73.10
2019-05-17T05:14:33.857Z,73.10
2019-05-17T05:15:43.394Z,73.20
2019-05-17T05:16:47.204Z,73.20
2019-05-17T05:17:52.742Z,73.20
2019-05-17T05:18:57.829Z,73.20
2019-05-17T05:20:03.067Z,73.20
2019-05-17T05:21:08.104Z,73.20
2019-05-17T05:22:14.282Z,73.20
2019-05-17T05:23:19.601Z,73.10
2019-05-17T05:24:24.341Z,73.20
2019-05-17T05:25:29.317Z,73.20
2019-05-17T05:26:34.072Z,73.20
2019-05-17T05:27:38.943Z,73.20
2019-05-17T05:28:43.798Z,73.30
2019-05-17T05:29:48.678Z,73.20
2019-05-17T05:30:53.640Z,73.30
2019-05-17T05:31:58.481Z,73.30
2019-05-17T05:33:03.322Z,73.30
2019-05-17T05:34:08.381Z,73.30
2019-05-17T05:35:13.393Z,73.30
2019-05-17T05:36:18.291Z,73.40
2019-05-17T05:37:23.333Z,73.40
2019-05-17T05:38:28.291Z,73.50
2019-05-17T05:39:33.096Z,73.40
2019-05-17T05:40:38.231Z,73.40
2019-05-17T05:41:42.967Z,73.40
2019-05-17T05:42:47.811Z,73.40
2019-05-17T05:43:52.778Z,73.50
2019-05-17T05:44:57.810Z,73.50
2019-05-17T05:46:02.905Z,73.40
2019-05-17T05:47:08.076Z,73.40
2019-05-17T05:48:13.222Z,73.40
2019-05-17T05:49:18.395Z,74.10
2019-05-17T05:50:23.171Z,73.40
2019-05-17T05:51:28.071Z,73.40
2019-05-17T05:52:32.798Z,73.40
2019-05-17T05:53:37.825Z,73.40
2019-05-17T05:54:42.508Z,73.40
2019-05-17T05:55:47.352Z,73.50
2019-05-17T05:56:52.499Z,73.50
2019-05-17T05:57:57.423Z,73.60
2019-05-17T05:59:02.871Z,73.60
2019-05-17T06:00:12.465Z,73.60
2019-05-17T06:01:16.666Z,73.60
2019-05-17T06:02:21.839Z,73.60
2019-05-17T06:03:26.829Z,73.50
2019-05-17T06:04:31.956Z,73.60
2019-05-17T06:05:36.834Z,73.60
2019-05-17T06:06:41.815Z,73.60
2019-05-17T06:07:46.605Z,73.70
2019-05-17T06:08:52.084Z,73.70
2019-05-17T06:09:57.017Z,73.70
2019-05-17T06:11:02.369Z,73.70
2019-05-17T06:12:18.975Z,73.70
2019-05-17T06:13:13.883Z,73.60
2019-05-17T06:14:18.874Z,73.60
2019-05-17T06:15:23.867Z,73.70
2019-05-17T06:16:28.662Z,73.70
2019-05-17T06:17:33.497Z,73.70
2019-05-17T06:18:38.577Z,73.70
2019-05-17T06:19:43.516Z,73.70
2019-05-17T06:20:48.532Z,73.70
2019-05-17T06:21:53.370Z,73.70
2019-05-17T06:22:58.168Z,73.60
2019-05-17T06:24:03.008Z,73.60
2019-05-17T06:25:08.031Z,73.60
2019-05-17T06:26:12.874Z,73.60
2019-05-17T06:27:17.768Z,73.60
2019-05-17T06:28:22.604Z,73.60
2019-05-17T06:29:27.376Z,73.60
2019-05-17T06:30:32.502Z,73.60
2019-05-17T06:31:37.425Z,73.60
2019-05-17T06:32:43.598Z,73.60
2019-05-17T06:33:48.615Z,73.60
2019-05-17T06:34:53.466Z,73.50
2019-05-17T06:35:58.149Z,73.50
2019-05-17T06:37:02.982Z,73.40
2019-05-17T06:38:07.812Z,73.30
2019-05-17T06:39:12.638Z,73.20
2019-05-17T06:40:17.930Z,73.20
2019-05-17T06:41:23.170Z,73.20
2019-05-17T06:42:38.269Z,73.20
2019-05-17T06:43:34.647Z,73.10
2019-05-17T06:44:41.616Z,73.00
2019-05-17T06:45:45.860Z,72.90
2019-05-17T06:46:51.927Z,72.90
2019-05-17T06:47:57.596Z,72.90
2019-05-17T06:49:03.085Z,72.90
2019-05-17T06:50:08.270Z,72.80
2019-05-17T06:51:13.389Z,72.80
2019-05-17T06:52:18.240Z,72.70
2019-05-17T06:53:22.982Z,72.70
2019-05-17T06:54:28.211Z,72.50
2019-05-17T06:55:33.219Z,72.40
2019-05-17T06:56:38.059Z,72.30
2019-05-17T06:57:43.463Z,72.20
2019-05-17T06:58:49.163Z,72.20
2019-05-17T06:59:54.567Z,72.10
2019-05-17T07:01:00.509Z,72.00
2019-05-17T07:02:06.516Z,71.90
2019-05-17T07:03:11.657Z,71.90
2019-05-17T07:04:16.397Z,71.80
2019-05-17T07:05:32.060Z,71.70
2019-05-17T07:06:36.962Z,71.70
2019-05-17T07:07:41.791Z,71.60
2019-05-17T07:08:46.463Z,71.60
2019-05-17T07:09:51.330Z,71.60
2019-05-17T07:10:56.042Z,71.70
2019-05-17T07:12:00.969Z,71.70
2019-05-17T07:13:05.695Z,71.70
2019-05-17T07:14:10.819Z,71.60
2019-05-17T07:15:15.636Z,71.70
2019-05-17T07:16:20.673Z,71.60
2019-05-17T07:17:25.324Z,71.70
2019-05-17T07:18:30.248Z,71.60
2019-05-17T07:19:35.020Z,71.30
2019-05-17T07:20:40.196Z,71.40
2019-05-17T07:21:44.944Z,71.20
2019-05-17T07:22:50.675Z,71.10
2019-05-17T07:23:55.606Z,71.00
2019-05-17T07:25:00.762Z,70.80
2019-05-17T07:26:05.421Z,70.60
2019-05-17T07:27:10.282Z,70.50
2019-05-17T07:28:14.933Z,70.50
2019-05-17T07:29:19.807Z,70.40
2019-05-17T07:30:24.823Z,70.50
2019-05-17T07:31:29.895Z,70.40
2019-05-17T07:32:34.616Z,70.30
2019-05-17T07:33:39.919Z,70.20
2019-05-17T07:34:44.948Z,70.20
2019-05-17T07:35:50.285Z,70.10
2019-05-17T07:36:55.351Z,70.10
2019-05-17T07:38:00.181Z,70.10
2019-05-17T07:39:05.894Z,70.10
2019-05-17T07:40:12.361Z,70.00
2019-05-17T07:41:17.135Z,69.90
2019-05-17T07:42:22.073Z,69.70
2019-05-17T07:43:27.100Z,69.60
2019-05-17T07:44:31.995Z,69.60
2019-05-17T07:45:36.756Z,69.40
2019-05-17T07:46:41.744Z,69.40
2019-05-17T07:47:49.385Z,69.30
2019-05-17T07:48:55.603Z,69.30
2019-05-17T07:50:01.008Z,69.00
2019-05-17T07:51:06.401Z,69.00
2019-05-17T07:52:11.067Z,68.80
2019-05-17T07:53:15.976Z,68.60
2019-05-17T07:54:20.900Z,68.50
2019-05-17T07:55:25.764Z,68.40
2019-05-17T07:56:30.682Z,68.30
2019-05-17T07:57:35.834Z,68.30
2019-05-17T07:58:40.596Z,68.20
2019-05-17T07:59:45.611Z,68.10
2019-05-17T08:00:51.209Z,68.10
2019-05-17T08:01:56.686Z,68.10
2019-05-17T08:03:01.332Z,67.90
2019-05-17T08:04:06.246Z,67.80
2019-05-17T08:05:11.685Z,67.70
2019-05-17T08:06:16.588Z,67.50
2019-05-17T08:07:21.451Z,67.50
2019-05-17T08:08:26.374Z,67.40
2019-05-17T08:09:31.043Z,67.10
2019-05-17T08:10:36.048Z,67.00
2019-05-17T08:11:40.783Z,66.70
2019-05-17T08:12:45.798Z,66.60
2019-05-17T08:13:50.666Z,66.60
2019-05-17T08:14:55.930Z,66.40
2019-05-17T08:16:00.918Z,66.20
2019-05-17T08:17:05.842Z,66.00
2019-05-17T08:18:11.117Z,65.90
2019-05-17T08:19:16.266Z,65.80
2019-05-17T08:20:21.021Z,65.90
2019-05-17T08:21:25.922Z,65.70
2019-05-17T08:22:30.807Z,65.60
2019-05-17T08:23:35.731Z,65.40
2019-05-17T08:24:40.457Z,65.50
2019-05-17T08:25:52.641Z,65.30
2019-05-17T08:26:51.855Z,65.40
2019-05-17T08:27:59.367Z,65.10
2019-05-17T08:29:03.358Z,65.10
2019-05-17T08:30:10.442Z,65.20
2019-05-17T08:31:15.636Z,65.10
2019-05-17T08:32:20.901Z,65.10
2019-05-17T08:33:25.997Z,64.80
2019-05-17T08:34:30.847Z,64.60
2019-05-17T08:35:35.528Z,64.60
2019-05-17T08:36:40.723Z,64.40
2019-05-17T08:37:45.892Z,64.30
2019-05-17T08:38:50.863Z,64.20
2019-05-17T08:39:55.530Z,64.00
2019-05-17T08:41:00.955Z,64.00
2019-05-17T08:43:10.264Z,63.70
2019-05-17T08:44:15.136Z,63.40
2019-05-17T08:45:20.737Z,63.20
2019-05-17T08:46:25.797Z,63.20
2019-05-17T08:47:31.422Z,63.00
2019-05-17T08:48:36.158Z,63.70
2019-05-17T08:49:41.023Z,62.90
2019-05-17T08:50:45.770Z,62.90
2019-05-17T08:51:50.870Z,62.50
2019-05-17T08:52:55.634Z,62.40
2019-05-17T08:54:00.766Z,62.30
2019-05-17T08:55:09.476Z,62.10
2019-05-17T08:56:13.669Z,62.10
2019-05-17T08:57:20.576Z,62.00
2019-05-17T08:58:25.031Z,61.90
2019-05-17T08:59:30.099Z,62.70
2019-05-17T09:00:35.163Z,61.50
2019-05-17T09:01:41.789Z,61.40
2019-05-17T09:02:46.492Z,61.30
2019-05-17T09:03:51.706Z,61.20
2019-05-17T09:04:56.541Z,61.00
2019-05-17T09:06:02.803Z,60.90
2019-05-17T09:07:09.486Z,60.60
2019-05-17T09:08:15.477Z,60.50
2019-05-17T09:09:20.497Z,60.40
2019-05-17T09:10:25.540Z,59.80
2019-05-17T09:11:30.452Z,59.60
2019-05-17T09:12:35.165Z,59.50
2019-05-17T09:13:48.017Z,59.50
2019-05-17T09:14:46.552Z,59.40
2019-05-17T09:15:51.425Z,59.40
2019-05-17T09:16:56.166Z,59.40
2019-05-17T09:18:01.001Z,59.30
2019-05-17T09:19:07.227Z,59.20
2019-05-17T09:20:12.654Z,59.10
2019-05-17T09:21:17.392Z,59.00
2019-05-17T09:22:22.282Z,58.90
2019-05-17T09:23:26.930Z,58.70
2019-05-17T09:24:32.098Z,58.50
2019-05-17T09:25:36.797Z,58.30
2019-05-17T09:26:41.636Z,58.20
2019-05-17T09:27:46.596Z,58.10
2019-05-17T09:28:51.440Z,58.00
2019-05-17T09:29:56.289Z,57.90
2019-05-17T09:31:01.300Z,57.80
2019-05-17T09:32:06.112Z,57.40
2019-05-17T09:33:11.550Z,57.30
2019-05-17T09:34:16.322Z,57.20
2019-05-17T09:35:21.303Z,57.00
2019-05-17T09:36:25.956Z,56.80
2019-05-17T09:37:30.823Z,56.60
2019-05-17T09:38:35.785Z,56.50
2019-05-17T09:39:40.848Z,56.20
2019-05-17T09:40:45.606Z,56.00
2019-05-17T09:41:50.521Z,56.00
2019-05-17T09:42:55.352Z,55.80
2019-05-17T09:44:11.709Z,55.70
2019-05-17T09:45:09.464Z,55.50
2019-05-17T09:46:13.994Z,55.50
2019-05-17T09:47:20.635Z,55.30
2019-05-17T09:48:25.202Z,55.20
2019-05-17T09:49:30.014Z,55.30
2019-05-17T09:50:34.956Z,55.20
2019-05-17T09:51:39.767Z,55.00
2019-05-17T09:52:44.865Z,54.90
2019-05-17T09:53:49.977Z,55.00
2019-05-17T09:54:54.824Z,55.00
2019-05-17T09:56:00.564Z,54.70
2019-05-17T09:57:05.772Z,54.40
2019-05-17T09:58:10.497Z,54.10
2019-05-17T09:59:15.643Z,53.90
2019-05-17T10:00:21.046Z,53.60
2019-05-17T10:01:26.176Z,53.60
2019-05-17T10:02:31.064Z,53.70
2019-05-17T10:03:35.901Z,54.20
2019-05-17T10:04:40.604Z,53.30
2019-05-17T10:05:45.719Z,53.50
2019-05-17T10:06:51.320Z,53.50
2019-05-17T10:07:56.741Z,53.40
2019-05-17T10:09:01.488Z,53.60
2019-05-17T10:10:10.122Z,53.60
2019-05-17T10:11:14.339Z,53.60
2019-05-17T10:12:20.228Z,53.60
2019-05-17T10:13:25.127Z,53.50
2019-05-17T10:14:31.409Z,53.50
2019-05-17T10:15:36.902Z,53.50
2019-05-17T10:17:45.881Z,52.50
2019-05-17T10:18:50.976Z,53.10
2019-05-17T10:19:55.602Z,52.90
2019-05-17T10:21:00.708Z,52.60
2019-05-17T10:22:05.232Z,52.30
2019-05-17T10:23:10.909Z,52.10
2019-05-17T10:24:15.688Z,52.10
2019-05-17T10:25:21.292Z,51.90
2019-05-17T10:26:25.870Z,51.70
2019-05-17T10:27:31.047Z,51.70
2019-05-17T10:28:35.617Z,51.30
2019-05-17T10:29:40.637Z,51.50
2019-05-17T10:30:45.192Z,51.30
2019-05-17T10:31:50.543Z,51.20
2019-05-17T10:32:55.192Z,51.20
2019-05-17T10:34:01.057Z,50.40
2019-05-17T10:35:07.267Z,49.90
2019-05-17T10:36:12.691Z,49.50
2019-05-17T10:37:20.143Z,48.80
2019-05-17T10:38:24.198Z,48.40
2019-05-17T10:39:29.799Z,48.20
2019-05-17T10:40:35.268Z,48.00
2019-05-17T10:41:40.688Z,47.90
2019-05-17T10:42:45.920Z,47.50
2019-05-17T10:43:50.401Z,47.50
2019-05-17T10:44:55.536Z,47.30
2019-05-17T10:46:00.185Z,47.10
2019-05-17T10:47:05.487Z,46.90
2019-05-17T10:48:10.491Z,46.40
2019-05-17T10:49:16.032Z,45.50
2019-05-17T10:50:20.800Z,45.90
2019-05-17T10:51:26.210Z,45.70
2019-05-17T10:52:30.743Z,45.50
2019-05-17T10:53:35.786Z,45.20
2019-05-17T10:54:40.409Z,45.00
2019-05-17T10:55:45.460Z,44.80
2019-05-17T10:56:50.460Z,44.80
2019-05-17T10:57:55.508Z,44.40
2019-05-17T10:59:00.222Z,43.70
2019-05-17T11:00:10.119Z,43.70
2019-05-17T11:01:15.180Z,43.30
2019-05-17T11:02:20.228Z,43.10
2019-05-17T11:03:24.719Z,42.90
2019-05-17T11:04:29.747Z,42.80
2019-05-17T11:05:34.721Z,42.50
2019-05-17T11:06:39.730Z,42.00
2019-05-17T11:07:44.266Z,41.70
2019-05-17T11:08:50.123Z,41.40
2019-05-17T11:09:54.949Z,41.00
2019-05-17T11:10:59.968Z,40.90
2019-05-17T11:12:04.720Z,40.70
2019-05-17T11:13:09.834Z,40.50
2019-05-17T11:14:14.309Z,40.30
2019-05-17T11:15:19.808Z,40.30
2019-05-17T11:16:24.580Z,40.00
2019-05-17T11:17:31.093Z,39.80
2019-05-17T11:18:35.667Z,39.90
2019-05-17T11:19:40.784Z,39.70
2019-05-17T11:20:45.718Z,39.70
2019-05-17T11:21:50.825Z,39.60
2019-05-17T11:22:55.351Z,39.20
2019-05-17T11:24:00.386Z,38.90
2019-05-17T11:25:08.095Z,38.80
2019-05-17T11:26:13.160Z,38.70
2019-05-17T11:27:17.930Z,38.70
2019-05-17T11:28:23.149Z,38.60
2019-05-17T11:29:27.768Z,38.40
2019-05-17T11:30:32.914Z,38.20
2019-05-17T11:31:37.566Z,38.90
2019-05-17T11:32:42.684Z,37.90
2019-05-17T11:33:47.232Z,37.60
2019-05-17T11:34:53.869Z,37.40
2019-05-17T11:35:58.451Z,37.20
2019-05-17T11:37:03.472Z,37.00
2019-05-17T11:38:08.028Z,36.80
2019-05-17T11:39:13.131Z,36.70
2019-05-17T11:40:18.873Z,36.50
2019-05-17T11:41:23.903Z,36.40
2019-05-17T11:42:28.539Z,36.50
2019-05-17T11:43:33.635Z,36.40
2019-05-17T11:44:38.108Z,36.30
2019-05-17T11:45:43.128Z,36.30
2019-05-17T11:46:47.778Z,36.20
2019-05-17T11:47:52.932Z,36.00
2019-05-17T11:48:57.614Z,35.80
2019-05-17T11:50:03.481Z,35.70
2019-05-17T11:51:08.011Z,35.80
2019-05-17T11:52:13.123Z,35.80
2019-05-17T11:53:17.652Z,35.70
2019-05-17T11:54:22.684Z,35.70
2019-05-17T11:55:27.167Z,35.60
2019-05-17T11:56:32.255Z,35.50
2019-05-17T11:57:36.710Z,35.00
2019-05-17T11:58:41.727Z,34.90
2019-05-17T11:59:46.362Z,34.80
2019-05-17T12:00:51.366Z,34.70
2019-05-17T12:01:55.917Z,34.60
2019-05-17T12:03:01.160Z,34.30
2019-05-17T12:04:05.643Z,34.10
2019-05-17T12:05:10.978Z,33.80
2019-05-17T12:06:15.453Z,33.70
2019-05-17T12:07:20.612Z,33.60
2019-05-17T12:08:25.080Z,33.60
2019-05-17T12:09:37.371Z,33.50
2019-05-17T12:10:38.994Z,33.30
2019-05-17T12:11:45.697Z,33.20
2019-05-17T12:12:50.503Z,33.20
2019-05-17T12:13:55.588Z,33.20
2019-05-17T12:15:00.296Z,33.20
2019-05-17T12:16:05.402Z,33.20
2019-05-17T12:17:10.144Z,33.10
2019-05-17T12:18:15.227Z,33.10
2019-05-17T12:19:19.771Z,33.00
2019-05-17T12:20:25.446Z,32.80
2019-05-17T12:21:30.018Z,32.70
2019-05-17T12:22:35.160Z,32.40
2019-05-17T12:23:39.702Z,32.30
2019-05-17T12:24:44.799Z,32.30
2019-05-17T12:25:49.299Z,32.30
2019-05-17T12:26:54.417Z,32.30
2019-05-17T12:27:58.886Z,32.40
2019-05-17T12:29:04.044Z,32.60
2019-05-17T12:30:11.438Z,32.50
2019-05-17T12:31:16.766Z,32.60
2019-05-17T12:32:21.324Z,32.60
2019-05-17T12:33:26.347Z,32.60
2019-05-17T12:34:30.833Z,32.60
2019-05-17T12:35:35.852Z,32.50
2019-05-17T12:36:40.330Z,32.30
2019-05-17T12:37:45.357Z,32.20
2019-05-17T12:38:49.823Z,32.00
2019-05-17T12:39:55.034Z,31.90
2019-05-17T12:40:59.638Z,31.70
2019-05-17T12:42:04.753Z,31.60
2019-05-17T12:43:09.333Z,31.40
2019-05-17T12:44:14.410Z,31.50
2019-05-17T12:45:18.945Z,31.20
2019-05-17T12:46:23.984Z,31.00
2019-05-17T12:47:28.793Z,30.80
2019-05-17T12:48:33.945Z,30.70
2019-05-17T12:49:38.426Z,30.70
2019-05-17T12:50:43.458Z,30.70
2019-05-17T12:51:48.636Z,30.70
2019-05-17T12:52:53.809Z,30.80
2019-05-17T12:53:58.270Z,30.70
2019-05-17T12:55:03.722Z,30.50
2019-05-17T12:56:08.268Z,30.50
2019-05-17T12:57:13.496Z,30.50
2019-05-17T12:58:18.063Z,30.50
2019-05-17T12:59:23.320Z,30.40
2019-05-17T13:00:27.822Z,30.20
2019-05-17T13:01:32.888Z,30.20
2019-05-17T13:02:37.480Z,30.10
2019-05-17T13:03:42.523Z,30.00
2019-05-17T13:04:47.275Z,30.00
2019-05-17T13:05:52.319Z,30.00
2019-05-17T13:06:56.788Z,30.00
2019-05-17T13:08:01.821Z,30.10
2019-05-17T13:09:06.555Z,30.10
2019-05-17T13:10:12.426Z,30.00
2019-05-17T13:11:16.922Z,30.00
2019-05-17T13:12:22.122Z,29.90
2019-05-17T13:13:26.647Z,29.70
2019-05-17T13:14:32.394Z,29.50
2019-05-17T13:15:36.852Z,29.30
2019-05-17T13:16:41.985Z,29.40
2019-05-17T13:17:46.504Z,29.30
2019-05-17T13:18:51.608Z,29.20
2019-05-17T13:19:56.090Z,29.00
2019-05-17T13:21:01.252Z,29.00
2019-05-17T13:22:05.731Z,29.00
2019-05-17T13:23:10.896Z,28.90
2019-05-17T13:24:15.452Z,28.90
2019-05-17T13:25:20.612Z,28.90
2019-05-17T13:26:25.228Z,29.00
2019-05-17T13:27:30.281Z,29.10
2019-05-17T13:28:34.839Z,29.00
2019-05-17T13:29:39.898Z,29.00
2019-05-17T13:30:44.369Z,28.90
2019-05-17T13:31:49.532Z,28.90
2019-05-17T13:32:54.285Z,28.80
2019-05-17T13:33:59.322Z,28.70
2019-05-17T13:35:06.655Z,28.60
2019-05-17T13:36:11.696Z,28.40
2019-05-17T13:37:16.220Z,28.30
2019-05-17T13:38:21.389Z,28.30
2019-05-17T13:39:25.882Z,28.30
2019-05-17T13:40:39.398Z,28.30
2019-05-17T13:41:37.407Z,28.20
2019-05-17T13:42:42.438Z,28.00
2019-05-17T13:43:46.900Z,27.80
2019-05-17T13:44:51.997Z,27.70
2019-05-17T13:45:56.566Z,27.50
2019-05-17T13:47:02.401Z,27.40
2019-05-17T13:48:07.170Z,27.20
2019-05-17T13:49:12.206Z,27.10
2019-05-17T13:50:17.489Z,27.20
2019-05-17T13:51:22.688Z,27.30
2019-05-17T13:52:27.142Z,27.30
2019-05-17T13:53:32.369Z,27.50
2019-05-17T13:54:37.098Z,27.60
2019-05-17T13:55:42.136Z,27.70
2019-05-17T13:56:46.670Z,27.80
2019-05-17T13:57:51.800Z,27.90
2019-05-17T13:58:56.357Z,28.00
2019-05-17T14:00:01.472Z,28.00
2019-05-17T14:01:06.014Z,27.90
2019-05-17T14:02:11.158Z,27.80